sensor_id;sensor_type;location;lat;lon;timestamp;P1;durP1;ratioP1;P2;durP2;ratioP2
17574;SDS011;8906;43.590;1.418;2023-05-02T00:02:06;2.42;;;1.80;;
17574;SDS011;8906;43.590;1.418;2023-05-02T00:04:33;4.10;;;1.48;;
17574;SDS011;8906;43.590;1.418;2023-05-02T00:07:00;1.90;;;1.80;;
17574;SDS011;8906;43.590;1.418;2023-05-02T00:09:27;4.40;;;2.33;;
17574;SDS011;8906;43.590;1.418;2023-05-02T00:11:56;5.88;;;2.15;;
17574;SDS011;8906;43.590;1.418;2023-05-02T00:14:23;2.42;;;2.03;;
17574;SDS011;8906;43.590;1.418;2023-05-02T00:16:50;4.53;;;2.17;;
17574;SDS011;8906;43.590;1.418;2023-05-02T00:19:17;4.80;;;2.15;;
17574;SDS011;8906;43.590;1.418;2023-05-02T00:21:46;3.63;;;2.00;;
17574;SDS011;8906;43.590;1.418;2023-05-02T00:24:13;3.17;;;1.95;;
17574;SDS011;8906;43.590;1.418;2023-05-02T00:26:40;3.47;;;1.80;;
17574;SDS011;8906;43.590;1.418;2023-05-02T00:29:09;4.07;;;1.70;;
17574;SDS011;8906;43.590;1.418;2023-05-02T00:31:35;3.38;;;1.90;;
17574;SDS011;8906;43.590;1.418;2023-05-02T00:34:02;3.50;;;2.10;;
17574;SDS011;8906;43.590;1.418;2023-05-02T00:36:30;4.80;;;2.03;;
17574;SDS011;8906;43.590;1.418;2023-05-02T00:38:57;4.13;;;2.08;;
17574;SDS011;8906;43.590;1.418;2023-05-02T00:41:23;4.10;;;1.73;;
17574;SDS011;8906;43.590;1.418;2023-05-02T00:43:50;3.47;;;1.88;;
17574;SDS011;8906;43.590;1.418;2023-05-02T00:46:19;2.60;;;1.63;;
17574;SDS011;8906;43.590;1.418;2023-05-02T00:48:46;1.90;;;1.80;;
17574;SDS011;8906;43.590;1.418;2023-05-02T00:51:13;3.05;;;1.80;;
17574;SDS011;8906;43.590;1.418;2023-05-02T00:53:41;2.72;;;1.35;;
17574;SDS011;8906;43.590;1.418;2023-05-02T00:56:08;3.83;;;2.75;;
17574;SDS011;8906;43.590;1.418;2023-05-02T00:58:35;6.70;;;2.35;;
17574;SDS011;8906;43.590;1.418;2023-05-02T01:01:07;2.63;;;1.92;;
17574;SDS011;8906;43.590;1.418;2023-05-02T01:03:49;3.40;;;1.95;;
17574;SDS011;8906;43.590;1.418;2023-05-02T01:06:29;2.63;;;1.77;;
17574;SDS011;8906;43.590;1.418;2023-05-02T01:09:04;4.43;;;1.55;;
17574;SDS011;8906;43.590;1.418;2023-05-02T01:11:43;4.75;;;1.95;;
17574;SDS011;8906;43.590;1.418;2023-05-02T01:14:15;5.50;;;2.08;;
17574;SDS011;8906;43.590;1.418;2023-05-02T01:16:44;3.03;;;2.25;;
17574;SDS011;8906;43.590;1.418;2023-05-02T01:19:24;2.45;;;1.67;;
17574;SDS011;8906;43.590;1.418;2023-05-02T01:21:56;3.67;;;2.05;;
17574;SDS011;8906;43.590;1.418;2023-05-02T01:24:27;2.38;;;1.90;;
17574;SDS011;8906;43.590;1.418;2023-05-02T01:27:04;2.50;;;2.30;;
17574;SDS011;8906;43.590;1.418;2023-05-02T01:29:41;3.88;;;2.08;;
17574;SDS011;8906;43.590;1.418;2023-05-02T01:32:09;8.80;;;2.60;;
17574;SDS011;8906;43.590;1.418;2023-05-02T01:34:40;4.55;;;2.08;;
17574;SDS011;8906;43.590;1.418;2023-05-02T01:37:10;4.55;;;3.00;;
17574;SDS011;8906;43.590;1.418;2023-05-02T01:39:38;3.50;;;2.17;;
17574;SDS011;8906;43.590;1.418;2023-05-02T01:42:07;1.88;;;1.58;;
17574;SDS011;8906;43.590;1.418;2023-05-02T01:44:36;1.90;;;1.42;;
17574;SDS011;8906;43.590;1.418;2023-05-02T01:47:06;4.05;;;2.47;;
17574;SDS011;8906;43.590;1.418;2023-05-02T01:49:34;4.63;;;1.90;;
17574;SDS011;8906;43.590;1.418;2023-05-02T01:52:04;2.75;;;2.13;;
17574;SDS011;8906;43.590;1.418;2023-05-02T01:54:35;3.22;;;1.92;;
17574;SDS011;8906;43.590;1.418;2023-05-02T01:57:04;2.90;;;1.90;;
17574;SDS011;8906;43.590;1.418;2023-05-02T01:59:32;6.70;;;2.72;;
17574;SDS011;8906;43.590;1.418;2023-05-02T02:02:00;1.95;;;1.70;;
17574;SDS011;8906;43.590;1.418;2023-05-02T02:04:31;3.35;;;2.00;;
17574;SDS011;8906;43.590;1.418;2023-05-02T02:07:01;3.10;;;2.08;;
17574;SDS011;8906;43.590;1.418;2023-05-02T02:09:31;5.97;;;2.05;;
17574;SDS011;8906;43.590;1.418;2023-05-02T02:11:59;5.20;;;2.45;;
17574;SDS011;8906;43.590;1.418;2023-05-02T02:14:32;7.13;;;2.22;;
17574;SDS011;8906;43.590;1.418;2023-05-02T02:17:00;1.67;;;1.58;;
17574;SDS011;8906;43.590;1.418;2023-05-02T02:19:32;2.45;;;1.75;;
17574;SDS011;8906;43.590;1.418;2023-05-02T02:22:00;2.25;;;1.85;;
17574;SDS011;8906;43.590;1.418;2023-05-02T02:24:30;3.25;;;2.33;;
17574;SDS011;8906;43.590;1.418;2023-05-02T02:26:58;2.80;;;1.85;;
17574;SDS011;8906;43.590;1.418;2023-05-02T02:29:24;4.68;;;2.45;;
17574;SDS011;8906;43.590;1.418;2023-05-02T02:31:52;2.60;;;1.83;;
17574;SDS011;8906;43.590;1.418;2023-05-02T02:34:18;4.07;;;2.33;;
17574;SDS011;8906;43.590;1.418;2023-05-02T02:36:49;3.15;;;1.95;;
17574;SDS011;8906;43.590;1.418;2023-05-02T02:39:24;4.72;;;2.03;;
17574;SDS011;8906;43.590;1.418;2023-05-02T02:42:07;3.40;;;2.20;;
17574;SDS011;8906;43.590;1.418;2023-05-02T02:44:40;4.40;;;2.45;;
17574;SDS011;8906;43.590;1.418;2023-05-02T02:47:19;5.13;;;2.38;;
17574;SDS011;8906;43.590;1.418;2023-05-02T02:49:55;6.72;;;3.55;;
17574;SDS011;8906;43.590;1.418;2023-05-02T02:52:34;4.28;;;2.15;;
17574;SDS011;8906;43.590;1.418;2023-05-02T02:55:08;4.18;;;2.47;;
17574;SDS011;8906;43.590;1.418;2023-05-02T02:57:47;5.07;;;1.85;;
17574;SDS011;8906;43.590;1.418;2023-05-02T03:00:21;4.55;;;2.20;;
17574;SDS011;8906;43.590;1.418;2023-05-02T03:02:52;5.88;;;2.80;;
17574;SDS011;8906;43.590;1.418;2023-05-02T03:05:21;3.55;;;2.33;;
17574;SDS011;8906;43.590;1.418;2023-05-02T03:07:50;3.17;;;2.20;;
17574;SDS011;8906;43.590;1.418;2023-05-02T03:10:17;4.65;;;2.55;;
17574;SDS011;8906;43.590;1.418;2023-05-02T03:12:44;6.32;;;2.65;;
17574;SDS011;8906;43.590;1.418;2023-05-02T03:15:20;2.95;;;2.65;;
17574;SDS011;8906;43.590;1.418;2023-05-02T03:17:57;4.18;;;3.08;;
17574;SDS011;8906;43.590;1.418;2023-05-02T03:20:24;2.65;;;1.98;;
17574;SDS011;8906;43.590;1.418;2023-05-02T03:22:53;2.92;;;2.72;;
17574;SDS011;8906;43.590;1.418;2023-05-02T03:25:20;2.80;;;2.47;;
17574;SDS011;8906;43.590;1.418;2023-05-02T03:27:46;6.63;;;2.50;;
17574;SDS011;8906;43.590;1.418;2023-05-02T03:30:13;4.00;;;2.20;;
17574;SDS011;8906;43.590;1.418;2023-05-02T03:32:40;3.00;;;2.47;;
17574;SDS011;8906;43.590;1.418;2023-05-02T03:35:07;3.53;;;1.88;;
17574;SDS011;8906;43.590;1.418;2023-05-02T03:37:34;3.45;;;2.30;;
17574;SDS011;8906;43.590;1.418;2023-05-02T03:40:03;5.03;;;2.60;;
17574;SDS011;8906;43.590;1.418;2023-05-02T03:42:30;4.53;;;2.00;;
17574;SDS011;8906;43.590;1.418;2023-05-02T03:44:57;3.88;;;2.63;;
17574;SDS011;8906;43.590;1.418;2023-05-02T03:47:24;4.05;;;2.47;;
17574;SDS011;8906;43.590;1.418;2023-05-02T03:49:51;6.60;;;3.53;;
17574;SDS011;8906;43.590;1.418;2023-05-02T03:52:18;3.92;;;2.47;;
17574;SDS011;8906;43.590;1.418;2023-05-02T03:54:45;3.38;;;1.98;;
17574;SDS011;8906;43.590;1.418;2023-05-02T03:57:13;2.45;;;2.15;;
17574;SDS011;8906;43.590;1.418;2023-05-02T03:59:40;5.63;;;2.47;;
17574;SDS011;8906;43.590;1.418;2023-05-02T04:02:09;4.53;;;2.70;;
17574;SDS011;8906;43.590;1.418;2023-05-02T04:04:36;3.60;;;2.40;;
17574;SDS011;8906;43.590;1.418;2023-05-02T04:07:04;4.25;;;2.00;;
17574;SDS011;8906;43.590;1.418;2023-05-02T04:09:32;7.20;;;2.90;;
17574;SDS011;8906;43.590;1.418;2023-05-02T04:11:59;5.13;;;2.38;;
17574;SDS011;8906;43.590;1.418;2023-05-02T04:14:27;6.55;;;3.28;;
17574;SDS011;8906;43.590;1.418;2023-05-02T04:16:54;4.85;;;3.42;;
17574;SDS011;8906;43.590;1.418;2023-05-02T04:19:21;6.78;;;2.38;;
17574;SDS011;8906;43.590;1.418;2023-05-02T04:21:48;2.92;;;2.55;;
17574;SDS011;8906;43.590;1.418;2023-05-02T04:24:15;5.03;;;2.78;;
17574;SDS011;8906;43.590;1.418;2023-05-02T04:26:42;2.88;;;2.10;;
17574;SDS011;8906;43.590;1.418;2023-05-02T04:29:11;4.65;;;2.72;;
17574;SDS011;8906;43.590;1.418;2023-05-02T04:31:40;3.38;;;2.38;;
17574;SDS011;8906;43.590;1.418;2023-05-02T04:34:07;4.63;;;2.42;;
17574;SDS011;8906;43.590;1.418;2023-05-02T04:36:34;3.58;;;3.22;;
17574;SDS011;8906;43.590;1.418;2023-05-02T04:39:01;3.15;;;1.85;;
17574;SDS011;8906;43.590;1.418;2023-05-02T04:41:28;4.93;;;3.38;;
17574;SDS011;8906;43.590;1.418;2023-05-02T04:43:55;4.50;;;2.85;;
17574;SDS011;8906;43.590;1.418;2023-05-02T04:46:22;4.35;;;3.03;;
17574;SDS011;8906;43.590;1.418;2023-05-02T04:48:50;4.03;;;2.60;;
17574;SDS011;8906;43.590;1.418;2023-05-02T04:51:17;8.85;;;3.65;;
17574;SDS011;8906;43.590;1.418;2023-05-02T04:53:44;5.78;;;2.53;;
17574;SDS011;8906;43.590;1.418;2023-05-02T04:56:11;4.03;;;2.88;;
17574;SDS011;8906;43.590;1.418;2023-05-02T04:58:38;4.57;;;2.90;;
17574;SDS011;8906;43.590;1.418;2023-05-02T05:01:05;5.57;;;3.53;;
17574;SDS011;8906;43.590;1.418;2023-05-02T05:03:32;5.13;;;4.63;;
17574;SDS011;8906;43.590;1.418;2023-05-02T05:06:00;7.60;;;4.45;;
17574;SDS011;8906;43.590;1.418;2023-05-02T05:08:27;3.63;;;3.15;;
17574;SDS011;8906;43.590;1.418;2023-05-02T05:10:54;3.45;;;3.00;;
17574;SDS011;8906;43.590;1.418;2023-05-02T05:13:21;5.15;;;2.33;;
17574;SDS011;8906;43.590;1.418;2023-05-02T05:15:48;9.90;;;3.67;;
17574;SDS011;8906;43.590;1.418;2023-05-02T05:18:15;4.88;;;2.30;;
17574;SDS011;8906;43.590;1.418;2023-05-02T05:20:42;3.83;;;2.65;;
17574;SDS011;8906;43.590;1.418;2023-05-02T05:23:10;4.15;;;2.40;;
17574;SDS011;8906;43.590;1.418;2023-05-02T05:25:37;3.38;;;3.08;;
17574;SDS011;8906;43.590;1.418;2023-05-02T05:28:04;2.50;;;2.20;;
17574;SDS011;8906;43.590;1.418;2023-05-02T05:30:31;3.60;;;2.53;;
17574;SDS011;8906;43.590;1.418;2023-05-02T05:32:58;5.47;;;3.83;;
17574;SDS011;8906;43.590;1.418;2023-05-02T05:35:25;3.83;;;3.00;;
17574;SDS011;8906;43.590;1.418;2023-05-02T05:37:52;4.07;;;2.78;;
17574;SDS011;8906;43.590;1.418;2023-05-02T05:40:20;4.50;;;2.83;;
17574;SDS011;8906;43.590;1.418;2023-05-02T05:42:47;4.63;;;2.47;;
17574;SDS011;8906;43.590;1.418;2023-05-02T05:45:14;2.60;;;2.40;;
17574;SDS011;8906;43.590;1.418;2023-05-02T05:47:43;5.70;;;3.25;;
17574;SDS011;8906;43.590;1.418;2023-05-02T05:50:10;4.30;;;2.58;;
17574;SDS011;8906;43.590;1.418;2023-05-02T05:52:37;5.88;;;2.35;;
17574;SDS011;8906;43.590;1.418;2023-05-02T05:55:04;4.35;;;2.60;;
17574;SDS011;8906;43.590;1.418;2023-05-02T05:57:33;3.88;;;3.03;;
17574;SDS011;8906;43.590;1.418;2023-05-02T06:00:00;4.45;;;3.15;;
17574;SDS011;8906;43.590;1.418;2023-05-02T06:02:27;4.20;;;3.70;;
17574;SDS011;8906;43.590;1.418;2023-05-02T06:04:54;4.85;;;3.35;;
17574;SDS011;8906;43.590;1.418;2023-05-02T06:07:21;4.75;;;2.72;;
17574;SDS011;8906;43.590;1.418;2023-05-02T06:09:48;3.83;;;2.90;;
17574;SDS011;8906;43.590;1.418;2023-05-02T06:12:15;4.15;;;2.92;;
17574;SDS011;8906;43.590;1.418;2023-05-02T06:14:43;4.28;;;3.33;;
17574;SDS011;8906;43.590;1.418;2023-05-02T06:17:10;3.05;;;2.35;;
17574;SDS011;8906;43.590;1.418;2023-05-02T06:19:37;5.43;;;2.40;;
17574;SDS011;8906;43.590;1.418;2023-05-02T06:22:04;4.25;;;2.53;;
17574;SDS011;8906;43.590;1.418;2023-05-02T06:24:31;3.10;;;2.67;;
17574;SDS011;8906;43.590;1.418;2023-05-02T06:26:58;5.43;;;3.42;;
17574;SDS011;8906;43.590;1.418;2023-05-02T06:29:26;6.80;;;3.47;;
17574;SDS011;8906;43.590;1.418;2023-05-02T06:31:55;4.05;;;2.80;;
17574;SDS011;8906;43.590;1.418;2023-05-02T06:34:22;4.07;;;2.35;;
17574;SDS011;8906;43.590;1.418;2023-05-02T06:36:52;5.30;;;3.53;;
17574;SDS011;8906;43.590;1.418;2023-05-02T06:39:20;10.50;;;2.95;;
17574;SDS011;8906;43.590;1.418;2023-05-02T06:41:47;6.60;;;3.15;;
17574;SDS011;8906;43.590;1.418;2023-05-02T06:44:14;4.47;;;2.33;;
17574;SDS011;8906;43.590;1.418;2023-05-02T06:46:41;7.97;;;3.83;;
17574;SDS011;8906;43.590;1.418;2023-05-02T06:49:09;6.82;;;3.35;;
17574;SDS011;8906;43.590;1.418;2023-05-02T06:51:36;3.60;;;2.88;;
17574;SDS011;8906;43.590;1.418;2023-05-02T06:54:04;4.97;;;2.63;;
17574;SDS011;8906;43.590;1.418;2023-05-02T06:56:32;4.95;;;2.35;;
17574;SDS011;8906;43.590;1.418;2023-05-02T06:58:59;5.03;;;3.00;;
17574;SDS011;8906;43.590;1.418;2023-05-02T07:01:26;5.95;;;2.30;;
17574;SDS011;8906;43.590;1.418;2023-05-02T07:03:53;5.68;;;3.20;;
17574;SDS011;8906;43.590;1.418;2023-05-02T07:06:22;7.32;;;3.20;;
17574;SDS011;8906;43.590;1.418;2023-05-02T07:08:50;3.40;;;3.10;;
17574;SDS011;8906;43.590;1.418;2023-05-02T07:11:17;8.50;;;2.80;;
17574;SDS011;8906;43.590;1.418;2023-05-02T07:13:45;4.45;;;3.05;;
17574;SDS011;8906;43.590;1.418;2023-05-02T07:16:11;6.93;;;2.92;;
17574;SDS011;8906;43.590;1.418;2023-05-02T07:18:39;3.97;;;3.15;;
17574;SDS011;8906;43.590;1.418;2023-05-02T07:21:06;8.60;;;3.67;;
17574;SDS011;8906;43.590;1.418;2023-05-02T07:23:34;7.60;;;3.33;;
17574;SDS011;8906;43.590;1.418;2023-05-02T07:26:01;4.78;;;3.90;;
17574;SDS011;8906;43.590;1.418;2023-05-02T07:28:29;7.85;;;3.78;;
17574;SDS011;8906;43.590;1.418;2023-05-02T07:30:56;4.72;;;3.28;;
17574;SDS011;8906;43.590;1.418;2023-05-02T07:33:23;5.70;;;3.83;;
17574;SDS011;8906;43.590;1.418;2023-05-02T07:35:50;5.45;;;3.67;;
17574;SDS011;8906;43.590;1.418;2023-05-02T07:38:16;5.97;;;3.67;;
17574;SDS011;8906;43.590;1.418;2023-05-02T07:40:45;6.93;;;4.10;;
17574;SDS011;8906;43.590;1.418;2023-05-02T07:43:12;5.90;;;3.22;;
17574;SDS011;8906;43.590;1.418;2023-05-02T07:45:40;5.88;;;3.30;;
17574;SDS011;8906;43.590;1.418;2023-05-02T07:48:06;6.38;;;2.90;;
17574;SDS011;8906;43.590;1.418;2023-05-02T07:50:33;4.35;;;2.95;;
17574;SDS011;8906;43.590;1.418;2023-05-02T07:53:00;5.38;;;2.45;;
17574;SDS011;8906;43.590;1.418;2023-05-02T07:55:27;7.90;;;2.63;;
17574;SDS011;8906;43.590;1.418;2023-05-02T07:57:56;5.10;;;2.08;;
17574;SDS011;8906;43.590;1.418;2023-05-02T08:00:24;5.55;;;2.40;;
17574;SDS011;8906;43.590;1.418;2023-05-02T08:02:51;6.65;;;2.30;;
17574;SDS011;8906;43.590;1.418;2023-05-02T08:05:17;3.42;;;2.78;;
17574;SDS011;8906;43.590;1.418;2023-05-02T08:07:44;2.25;;;2.05;;
17574;SDS011;8906;43.590;1.418;2023-05-02T08:10:11;4.88;;;1.92;;
17574;SDS011;8906;43.590;1.418;2023-05-02T08:12:38;3.58;;;2.25;;
17574;SDS011;8906;43.590;1.418;2023-05-02T08:15:08;4.63;;;1.90;;
17574;SDS011;8906;43.590;1.418;2023-05-02T08:17:37;5.15;;;2.38;;
17574;SDS011;8906;43.590;1.418;2023-05-02T08:20:04;4.63;;;2.00;;
17574;SDS011;8906;43.590;1.418;2023-05-02T08:22:32;3.55;;;2.38;;
17574;SDS011;8906;43.590;1.418;2023-05-02T08:24:59;10.40;;;2.78;;
17574;SDS011;8906;43.590;1.418;2023-05-02T08:27:26;5.22;;;2.55;;
17574;SDS011;8906;43.590;1.418;2023-05-02T08:29:53;5.18;;;2.72;;
17574;SDS011;8906;43.590;1.418;2023-05-02T08:32:21;4.63;;;2.15;;
17574;SDS011;8906;43.590;1.418;2023-05-02T08:34:48;2.22;;;1.83;;
17574;SDS011;8906;43.590;1.418;2023-05-02T08:37:15;3.33;;;1.55;;
17574;SDS011;8906;43.590;1.418;2023-05-02T08:39:42;5.95;;;1.88;;
17574;SDS011;8906;43.590;1.418;2023-05-02T08:42:09;10.85;;;2.15;;
17574;SDS011;8906;43.590;1.418;2023-05-02T08:44:36;6.10;;;2.83;;
17574;SDS011;8906;43.590;1.418;2023-05-02T08:47:03;1.65;;;1.35;;
17574;SDS011;8906;43.590;1.418;2023-05-02T08:49:32;3.47;;;1.98;;
17574;SDS011;8906;43.590;1.418;2023-05-02T08:52:01;2.25;;;1.90;;
17574;SDS011;8906;43.590;1.418;2023-05-02T08:54:30;3.72;;;2.42;;
17574;SDS011;8906;43.590;1.418;2023-05-02T08:56:58;2.55;;;2.00;;
17574;SDS011;8906;43.590;1.418;2023-05-02T08:59:27;2.13;;;1.80;;
17574;SDS011;8906;43.590;1.418;2023-05-02T09:02:09;2.55;;;1.92;;
17574;SDS011;8906;43.590;1.418;2023-05-02T09:04:46;5.30;;;1.90;;
17574;SDS011;8906;43.590;1.418;2023-05-02T09:07:18;5.88;;;1.90;;
17574;SDS011;8906;43.590;1.418;2023-05-02T09:09:45;4.43;;;2.17;;
17574;SDS011;8906;43.590;1.418;2023-05-02T09:12:12;6.05;;;1.85;;
17574;SDS011;8906;43.590;1.418;2023-05-02T09:14:40;1.90;;;1.60;;
17574;SDS011;8906;43.590;1.418;2023-05-02T09:17:09;2.17;;;1.80;;
17574;SDS011;8906;43.590;1.418;2023-05-02T09:19:36;1.98;;;1.58;;
17574;SDS011;8906;43.590;1.418;2023-05-02T09:22:04;3.45;;;1.50;;
17574;SDS011;8906;43.590;1.418;2023-05-02T09:24:31;4.80;;;2.45;;
17574;SDS011;8906;43.590;1.418;2023-05-02T09:26:59;3.15;;;1.63;;
17574;SDS011;8906;43.590;1.418;2023-05-02T09:29:27;3.58;;;1.58;;
17574;SDS011;8906;43.590;1.418;2023-05-02T09:31:59;5.35;;;1.90;;
17574;SDS011;8906;43.590;1.418;2023-05-02T09:34:26;2.45;;;1.58;;
17574;SDS011;8906;43.590;1.418;2023-05-02T09:36:53;3.70;;;1.48;;
17574;SDS011;8906;43.590;1.418;2023-05-02T09:39:23;2.92;;;1.63;;
17574;SDS011;8906;43.590;1.418;2023-05-02T09:41:50;2.63;;;1.60;;
17574;SDS011;8906;43.590;1.418;2023-05-02T09:44:18;4.47;;;1.88;;
17574;SDS011;8906;43.590;1.418;2023-05-02T09:46:47;2.97;;;2.05;;
17574;SDS011;8906;43.590;1.418;2023-05-02T09:49:15;3.63;;;1.92;;
17574;SDS011;8906;43.590;1.418;2023-05-02T09:51:44;2.70;;;1.63;;
17574;SDS011;8906;43.590;1.418;2023-05-02T09:54:11;2.67;;;1.83;;
17574;SDS011;8906;43.590;1.418;2023-05-02T09:56:52;2.88;;;1.48;;
17574;SDS011;8906;43.590;1.418;2023-05-02T09:59:21;1.75;;;1.55;;
17574;SDS011;8906;43.590;1.418;2023-05-02T10:01:55;1.75;;;1.48;;
17574;SDS011;8906;43.590;1.418;2023-05-02T10:04:23;1.42;;;1.30;;
17574;SDS011;8906;43.590;1.418;2023-05-02T10:06:51;3.40;;;1.70;;
17574;SDS011;8906;43.590;1.418;2023-05-02T10:09:19;1.63;;;1.52;;
17574;SDS011;8906;43.590;1.418;2023-05-02T10:11:48;3.38;;;1.60;;
17574;SDS011;8906;43.590;1.418;2023-05-02T10:14:18;4.20;;;1.58;;
17574;SDS011;8906;43.590;1.418;2023-05-02T10:16:50;2.28;;;1.30;;
17574;SDS011;8906;43.590;1.418;2023-05-02T10:19:28;2.40;;;2.20;;
17574;SDS011;8906;43.590;1.418;2023-05-02T10:21:56;2.22;;;1.52;;
17574;SDS011;8906;43.590;1.418;2023-05-02T10:24:25;2.83;;;1.52;;
17574;SDS011;8906;43.590;1.418;2023-05-02T10:26:53;2.65;;;1.67;;
17574;SDS011;8906;43.590;1.418;2023-05-02T10:29:22;1.98;;;1.63;;
17574;SDS011;8906;43.590;1.418;2023-05-02T10:31:49;1.88;;;1.70;;
17574;SDS011;8906;43.590;1.418;2023-05-02T10:34:18;2.22;;;1.58;;
17574;SDS011;8906;43.590;1.418;2023-05-02T10:36:45;3.95;;;1.67;;
17574;SDS011;8906;43.590;1.418;2023-05-02T10:39:12;3.08;;;1.27;;
17574;SDS011;8906;43.590;1.418;2023-05-02T10:41:40;2.75;;;1.67;;
17574;SDS011;8906;43.590;1.418;2023-05-02T10:44:08;3.22;;;1.40;;
17574;SDS011;8906;43.590;1.418;2023-05-02T10:46:37;2.97;;;1.35;;
17574;SDS011;8906;43.590;1.418;2023-05-02T10:49:06;4.32;;;1.65;;
17574;SDS011;8906;43.590;1.418;2023-05-02T10:51:34;1.40;;;1.30;;
17574;SDS011;8906;43.590;1.418;2023-05-02T10:54:18;2.40;;;1.58;;
17574;SDS011;8906;43.590;1.418;2023-05-02T10:57:02;1.35;;;1.00;;
17574;SDS011;8906;43.590;1.418;2023-05-02T10:59:33;1.67;;;1.20;;
17574;SDS011;8906;43.590;1.418;2023-05-02T11:02:02;1.00;;;0.90;;
17574;SDS011;8906;43.590;1.418;2023-05-02T11:07:25;2.20;;;1.48;;
17574;SDS011;8906;43.590;1.418;2023-05-02T11:09:52;1.73;;;1.08;;
17574;SDS011;8906;43.590;1.418;2023-05-02T11:12:43;2.13;;;1.20;;
17574;SDS011;8906;43.590;1.418;2023-05-02T11:15:12;1.10;;;1.08;;
17574;SDS011;8906;43.590;1.418;2023-05-02T11:20:25;1.17;;;1.00;;
17574;SDS011;8906;43.590;1.418;2023-05-02T11:22:53;1.33;;;0.95;;
17574;SDS011;8906;43.590;1.418;2023-05-02T11:25:28;1.73;;;1.05;;
17574;SDS011;8906;43.590;1.418;2023-05-02T11:28:03;1.42;;;1.25;;
17574;SDS011;8906;43.590;1.418;2023-05-02T11:30:41;1.48;;;1.10;;
17574;SDS011;8906;43.590;1.418;2023-05-02T11:33:14;2.78;;;1.42;;
17574;SDS011;8906;43.590;1.418;2023-05-02T11:35:47;2.53;;;1.20;;
17574;SDS011;8906;43.590;1.418;2023-05-02T11:38:15;1.58;;;1.30;;
17574;SDS011;8906;43.590;1.418;2023-05-02T11:40:51;3.15;;;1.33;;
17574;SDS011;8906;43.590;1.418;2023-05-02T11:43:22;1.63;;;1.05;;
17574;SDS011;8906;43.590;1.418;2023-05-02T11:45:50;2.40;;;1.10;;
17574;SDS011;8906;43.590;1.418;2023-05-02T11:48:20;3.97;;;1.40;;
17574;SDS011;8906;43.590;1.418;2023-05-02T11:50:51;4.30;;;1.75;;
17574;SDS011;8906;43.590;1.418;2023-05-02T11:53:20;2.60;;;1.20;;
17574;SDS011;8906;43.590;1.418;2023-05-02T11:55:49;2.67;;;1.17;;
17574;SDS011;8906;43.590;1.418;2023-05-02T11:58:18;3.75;;;1.10;;
17574;SDS011;8906;43.590;1.418;2023-05-02T12:00:46;3.78;;;1.00;;
17574;SDS011;8906;43.590;1.418;2023-05-02T12:03:19;2.33;;;1.50;;
17574;SDS011;8906;43.590;1.418;2023-05-02T12:05:47;2.92;;;1.25;;
17574;SDS011;8906;43.590;1.418;2023-05-02T12:08:22;3.33;;;1.25;;
17574;SDS011;8906;43.590;1.418;2023-05-02T12:10:51;2.95;;;0.98;;
17574;SDS011;8906;43.590;1.418;2023-05-02T12:13:19;2.90;;;1.00;;
17574;SDS011;8906;43.590;1.418;2023-05-02T12:15:48;1.60;;;1.08;;
17574;SDS011;8906;43.590;1.418;2023-05-02T12:18:16;4.13;;;0.93;;
17574;SDS011;8906;43.590;1.418;2023-05-02T12:20:45;2.90;;;1.10;;
17574;SDS011;8906;43.590;1.418;2023-05-02T12:23:12;1.00;;;0.90;;
17574;SDS011;8906;43.590;1.418;2023-05-02T12:25:40;1.35;;;1.10;;
17574;SDS011;8906;43.590;1.418;2023-05-02T12:28:08;11.32;;;1.40;;
17574;SDS011;8906;43.590;1.418;2023-05-02T12:30:36;3.97;;;2.00;;
17574;SDS011;8906;43.590;1.418;2023-05-02T12:33:04;1.58;;;0.90;;
17574;SDS011;8906;43.590;1.418;2023-05-02T12:35:31;4.78;;;1.60;;
17574;SDS011;8906;43.590;1.418;2023-05-02T12:38:11;1.42;;;1.25;;
17574;SDS011;8906;43.590;1.418;2023-05-02T12:40:45;2.00;;;0.95;;
17574;SDS011;8906;43.590;1.418;2023-05-02T12:43:16;1.20;;;0.95;;
17574;SDS011;8906;43.590;1.418;2023-05-02T12:45:44;0.98;;;0.77;;
17574;SDS011;8906;43.590;1.418;2023-05-02T12:48:19;1.73;;;1.17;;
17574;SDS011;8906;43.590;1.418;2023-05-02T12:50:48;1.50;;;1.15;;
17574;SDS011;8906;43.590;1.418;2023-05-02T12:53:16;1.52;;;1.30;;
17574;SDS011;8906;43.590;1.418;2023-05-02T12:56:02;3.15;;;1.25;;
17574;SDS011;8906;43.590;1.418;2023-05-02T12:58:30;2.40;;;0.93;;
17574;SDS011;8906;43.590;1.418;2023-05-02T13:01:06;2.42;;;1.40;;
17574;SDS011;8906;43.590;1.418;2023-05-02T13:03:33;24.27;;;5.25;;
17574;SDS011;8906;43.590;1.418;2023-05-02T13:06:00;1.20;;;1.10;;
17574;SDS011;8906;43.590;1.418;2023-05-02T13:08:29;2.85;;;1.10;;
17574;SDS011;8906;43.590;1.418;2023-05-02T13:10:57;2.80;;;0.85;;
17574;SDS011;8906;43.590;1.418;2023-05-02T13:13:24;1.30;;;1.10;;
17574;SDS011;8906;43.590;1.418;2023-05-02T13:15:51;1.17;;;0.90;;
17574;SDS011;8906;43.590;1.418;2023-05-02T13:18:17;5.20;;;1.40;;
17574;SDS011;8906;43.590;1.418;2023-05-02T13:20:44;1.27;;;1.00;;
17574;SDS011;8906;43.590;1.418;2023-05-02T13:23:11;4.38;;;1.50;;
17574;SDS011;8906;43.590;1.418;2023-05-02T13:25:42;9.32;;;1.25;;
17574;SDS011;8906;43.590;1.418;2023-05-02T13:28:09;8.75;;;1.13;;
17574;SDS011;8906;43.590;1.418;2023-05-02T13:30:35;1.95;;;1.00;;
17574;SDS011;8906;43.590;1.418;2023-05-02T13:33:43;1.55;;;1.10;;
17574;SDS011;8906;43.590;1.418;2023-05-02T13:36:10;1.90;;;0.95;;
17574;SDS011;8906;43.590;1.418;2023-05-02T13:38:36;0.93;;;0.80;;
17574;SDS011;8906;43.590;1.418;2023-05-02T13:41:03;1.45;;;0.95;;
17574;SDS011;8906;43.590;1.418;2023-05-02T13:43:30;1.40;;;1.20;;
17574;SDS011;8906;43.590;1.418;2023-05-02T13:45:57;0.80;;;0.70;;
17574;SDS011;8906;43.590;1.418;2023-05-02T13:48:24;2.35;;;0.90;;
17574;SDS011;8906;43.590;1.418;2023-05-02T13:50:53;3.03;;;1.20;;
17574;SDS011;8906;43.590;1.418;2023-05-02T13:53:19;0.60;;;0.55;;
17574;SDS011;8906;43.590;1.418;2023-05-02T13:55:46;1.40;;;1.02;;
17574;SDS011;8906;43.590;1.418;2023-05-02T13:58:13;1.30;;;0.90;;
17574;SDS011;8906;43.590;1.418;2023-05-02T14:00:40;2.88;;;1.25;;
17574;SDS011;8906;43.590;1.418;2023-05-02T14:03:07;15.30;;;1.67;;
17574;SDS011;8906;43.590;1.418;2023-05-02T14:05:35;1.17;;;0.70;;
17574;SDS011;8906;43.590;1.418;2023-05-02T14:08:06;3.97;;;1.13;;
17574;SDS011;8906;43.590;1.418;2023-05-02T14:10:33;1.15;;;0.93;;
17574;SDS011;8906;43.590;1.418;2023-05-02T14:13:02;1.13;;;0.82;;
17574;SDS011;8906;43.590;1.418;2023-05-02T14:15:28;1.80;;;1.00;;
17574;SDS011;8906;43.590;1.418;2023-05-02T14:17:55;4.47;;;0.98;;
17574;SDS011;8906;43.590;1.418;2023-05-02T14:20:22;1.52;;;1.02;;
17574;SDS011;8906;43.590;1.418;2023-05-02T14:22:49;2.70;;;1.17;;
17574;SDS011;8906;43.590;1.418;2023-05-02T14:25:18;3.25;;;0.90;;
17574;SDS011;8906;43.590;1.418;2023-05-02T14:27:44;2.33;;;0.90;;
17574;SDS011;8906;43.590;1.418;2023-05-02T14:30:11;1.48;;;1.15;;
17574;SDS011;8906;43.590;1.418;2023-05-02T14:32:38;0.90;;;0.77;;
17574;SDS011;8906;43.590;1.418;2023-05-02T14:35:05;1.85;;;0.90;;
17574;SDS011;8906;43.590;1.418;2023-05-02T14:37:33;0.93;;;0.90;;
17574;SDS011;8906;43.590;1.418;2023-05-02T14:40:00;2.25;;;0.80;;
17574;SDS011;8906;43.590;1.418;2023-05-02T14:42:28;3.33;;;0.95;;
17574;SDS011;8906;43.590;1.418;2023-05-02T14:44:55;1.52;;;1.05;;
17574;SDS011;8906;43.590;1.418;2023-05-02T14:47:22;2.03;;;0.75;;
17574;SDS011;8906;43.590;1.418;2023-05-02T14:49:49;1.05;;;0.80;;
17574;SDS011;8906;43.590;1.418;2023-05-02T14:52:16;1.85;;;0.90;;
17574;SDS011;8906;43.590;1.418;2023-05-02T14:54:43;2.80;;;1.13;;
17574;SDS011;8906;43.590;1.418;2023-05-02T14:57:11;1.70;;;0.95;;
17574;SDS011;8906;43.590;1.418;2023-05-02T14:59:39;0.82;;;0.82;;
17574;SDS011;8906;43.590;1.418;2023-05-02T15:02:06;1.13;;;0.93;;
17574;SDS011;8906;43.590;1.418;2023-05-02T15:04:33;1.60;;;1.25;;
17574;SDS011;8906;43.590;1.418;2023-05-02T15:07:00;1.70;;;0.98;;
17574;SDS011;8906;43.590;1.418;2023-05-02T15:09:27;1.08;;;0.98;;
17574;SDS011;8906;43.590;1.418;2023-05-02T15:11:54;1.15;;;0.73;;
17574;SDS011;8906;43.590;1.418;2023-05-02T15:14:21;3.90;;;1.58;;
17574;SDS011;8906;43.590;1.418;2023-05-02T15:16:50;2.67;;;1.33;;